createdAt,value
2017-05-31T00:00:34.972Z,0.00
2017-05-31T00:01:31.300Z,0.00
2017-05-31T00:02:27.617Z,0.00
2017-05-31T00:03:23.956Z,0.00
2017-05-31T00:04:20.280Z,0.00
2017-05-31T00:05:16.644Z,0.00
2017-05-31T00:06:12.963Z,0.00
2017-05-31T00:07:09.333Z,0.00
2017-05-31T00:08:05.704Z,0.00
2017-05-31T00:09:02.057Z,0.00
2017-05-31T00:09:58.481Z,0.00
2017-05-31T00:10:54.826Z,0.00
2017-05-31T00:11:51.193Z,0.00
2017-05-31T00:12:47.536Z,0.00
2017-05-31T00:13:43.882Z,0.00
2017-05-31T00:14:40.244Z,0.00
2017-05-31T00:15:36.602Z,0.00
2017-05-31T00:16:32.956Z,0.00
2017-05-31T00:17:29.316Z,0.00
2017-05-31T00:18:25.666Z,0.00
2017-05-31T00:19:22.001Z,0.00
2017-05-31T00:20:18.399Z,0.00
2017-05-31T00:21:14.733Z,0.00
2017-05-31T00:22:11.095Z,0.00
2017-05-31T00:23:07.456Z,0.00
2017-05-31T00:24:03.807Z,0.00
2017-05-31T00:25:00.179Z,0.00
2017-05-31T00:25:56.538Z,0.00
2017-05-31T00:26:52.901Z,0.00
2017-05-31T00:27:49.238Z,0.00
2017-05-31T00:28:45.585Z,0.00
2017-05-31T00:29:41.932Z,0.00
2017-05-31T00:30:38.300Z,0.00
2017-05-31T00:31:34.685Z,0.00
2017-05-31T00:32:31.065Z,0.00
2017-05-31T00:33:27.408Z,0.00
2017-05-31T00:34:23.769Z,0.00
2017-05-31T00:35:20.124Z,0.00
2017-05-31T00:36:16.474Z,0.00
2017-05-31T00:37:12.832Z,0.00
2017-05-31T00:38:09.209Z,0.00
2017-05-31T00:39:05.553Z,0.00
2017-05-31T00:40:01.884Z,0.00
2017-05-31T00:40:58.260Z,0.00
2017-05-31T00:41:54.592Z,0.00
2017-05-31T00:42:50.957Z,0.00
2017-05-31T00:43:47.320Z,0.00
2017-05-31T00:44:43.642Z,0.00
2017-05-31T00:45:39.992Z,0.00
2017-05-31T00:46:36.390Z,0.00
2017-05-31T00:47:32.750Z,0.00
2017-05-31T00:48:29.100Z,0.00
2017-05-31T00:49:25.449Z,0.00
2017-05-31T00:50:21.798Z,0.00
2017-05-31T00:51:18.154Z,0.00
2017-05-31T00:52:14.490Z,0.00
2017-05-31T00:53:10.842Z,0.00
2017-05-31T00:54:07.146Z,0.00
2017-05-31T00:55:03.489Z,0.00
2017-05-31T00:55:59.843Z,0.00
2017-05-31T00:56:56.189Z,0.00
2017-05-31T00:57:53.352Z,0.00
2017-05-31T00:58:49.744Z,0.00
2017-05-31T00:59:46.119Z,0.00
2017-05-31T01:00:42.574Z,0.00
2017-05-31T01:01:38.959Z,0.00
2017-05-31T01:02:35.308Z,0.00
2017-05-31T01:03:31.621Z,0.00
2017-05-31T01:04:28.004Z,0.00
2017-05-31T01:05:24.373Z,0.00
2017-05-31T01:06:20.724Z,0.00
2017-05-31T01:07:17.059Z,0.00
2017-05-31T01:08:13.359Z,0.00
2017-05-31T01:09:09.717Z,0.00
2017-05-31T01:10:06.118Z,0.00
2017-05-31T01:11:02.509Z,0.00
2017-05-31T01:11:58.841Z,0.00
2017-05-31T01:12:55.188Z,0.00
2017-05-31T01:13:51.504Z,0.00
2017-05-31T01:14:47.865Z,0.00
2017-05-31T01:15:44.216Z,0.00
2017-05-31T01:16:40.585Z,0.00
2017-05-31T01:17:36.899Z,0.00
2017-05-31T01:18:33.230Z,0.00
2017-05-31T01:19:29.573Z,0.00
2017-05-31T01:20:25.977Z,0.00
2017-05-31T01:21:22.357Z,0.00
2017-05-31T01:22:19.625Z,0.00
2017-05-31T01:23:15.974Z,0.00
2017-05-31T01:24:12.377Z,0.00
2017-05-31T01:25:09.628Z,0.00
2017-05-31T01:26:05.978Z,0.00
2017-05-31T01:27:02.357Z,0.00
2017-05-31T01:27:58.759Z,0.00
2017-05-31T01:28:55.097Z,0.00
2017-05-31T01:29:51.465Z,0.00
2017-05-31T01:30:48.056Z,0.00
2017-05-31T01:31:44.395Z,0.00
2017-05-31T01:32:40.756Z,0.00
2017-05-31T01:33:37.143Z,0.00
2017-05-31T01:34:33.506Z,0.00
2017-05-31T01:35:29.921Z,0.00
2017-05-31T01:36:26.258Z,0.00
2017-05-31T01:37:23.491Z,0.00
2017-05-31T01:38:19.816Z,0.00
2017-05-31T01:39:16.160Z,0.00
2017-05-31T01:40:12.481Z,0.00
2017-05-31T01:41:08.812Z,0.00
2017-05-31T01:42:05.140Z,0.00
2017-05-31T01:43:01.535Z,0.00
2017-05-31T01:43:57.869Z,0.00
2017-05-31T01:44:54.204Z,0.00
2017-05-31T01:45:50.552Z,0.00
2017-05-31T01:46:46.944Z,0.00
2017-05-31T01:47:43.327Z,0.00
2017-05-31T01:48:39.699Z,0.00
2017-05-31T01:49:36.024Z,0.00
2017-05-31T01:50:32.332Z,0.00
2017-05-31T01:51:28.692Z,0.00
2017-05-31T01:52:25.113Z,0.00
2017-05-31T01:53:21.545Z,0.00
2017-05-31T01:54:17.880Z,0.00
2017-05-31T01:55:14.204Z,0.00
2017-05-31T01:56:10.602Z,0.00
2017-05-31T01:57:07.010Z,0.00
2017-05-31T01:58:03.345Z,0.00
2017-05-31T01:58:59.689Z,0.00
2017-05-31T01:59:56.777Z,0.00
2017-05-31T02:00:53.125Z,0.00
2017-05-31T02:01:49.484Z,0.00
2017-05-31T02:02:45.883Z,0.00
2017-05-31T02:03:42.287Z,0.00
2017-05-31T02:04:39.553Z,0.00
2017-05-31T02:05:35.939Z,0.00
2017-05-31T02:06:32.277Z,0.00
2017-05-31T02:07:28.588Z,0.00
2017-05-31T02:08:24.956Z,0.00
2017-05-31T02:09:22.126Z,0.00
2017-05-31T02:10:18.493Z,0.00
2017-05-31T02:11:14.877Z,0.00
2017-05-31T02:12:12.234Z,0.00
2017-05-31T02:13:08.585Z,0.00
2017-05-31T02:14:04.988Z,0.00
2017-05-31T02:15:01.352Z,0.00
2017-05-31T02:15:57.764Z,0.00
2017-05-31T02:16:54.124Z,0.00
2017-05-31T02:17:50.536Z,0.00
2017-05-31T02:18:46.980Z,0.00
2017-05-31T02:19:43.335Z,0.00
2017-05-31T02:20:39.681Z,0.00
2017-05-31T02:21:36.055Z,0.00
2017-05-31T02:22:32.414Z,0.00
2017-05-31T02:23:29.660Z,0.00
2017-05-31T02:24:26.096Z,0.00
2017-05-31T02:25:22.505Z,0.00
2017-05-31T02:26:19.679Z,0.00
2017-05-31T02:27:16.864Z,0.00
2017-05-31T02:28:13.251Z,0.00
2017-05-31T02:29:09.673Z,0.00
2017-05-31T02:30:06.088Z,0.00
2017-05-31T02:31:02.460Z,0.00
2017-05-31T02:31:58.893Z,0.00
2017-05-31T02:32:55.315Z,0.00
2017-05-31T02:33:52.412Z,0.00
2017-05-31T02:34:48.809Z,0.00
2017-05-31T02:35:46.037Z,0.00
2017-05-31T02:36:42.415Z,0.00
2017-05-31T02:37:38.830Z,0.00
2017-05-31T02:38:35.262Z,0.00
2017-05-31T02:39:31.603Z,0.00
2017-05-31T02:40:28.034Z,0.00
2017-05-31T02:41:24.499Z,0.00
2017-05-31T02:42:20.854Z,0.00
2017-05-31T02:43:17.253Z,0.00
2017-05-31T02:44:13.631Z,0.00
2017-05-31T02:45:10.108Z,0.00
2017-05-31T02:46:06.570Z,0.00
2017-05-31T02:47:03.923Z,0.00
2017-05-31T02:48:00.356Z,0.00
2017-05-31T02:48:56.846Z,0.00
2017-05-31T02:49:53.281Z,0.00
2017-05-31T02:50:49.704Z,0.00
2017-05-31T02:51:46.136Z,0.00
2017-05-31T02:52:43.337Z,0.00
2017-05-31T02:53:40.533Z,1.00
2017-05-31T02:54:37.797Z,1.00
2017-05-31T02:55:34.208Z,1.00
2017-05-31T02:56:30.696Z,1.00
2017-05-31T02:57:28.049Z,1.00
2017-05-31T02:58:24.484Z,1.00
2017-05-31T02:59:20.914Z,1.00
2017-05-31T03:00:17.393Z,1.00
2017-05-31T03:01:13.806Z,1.00
2017-05-31T03:02:10.247Z,1.00
2017-05-31T03:03:06.721Z,1.00
2017-05-31T03:04:03.218Z,2.00
2017-05-31T03:04:59.688Z,2.00
2017-05-31T03:05:56.112Z,2.00
2017-05-31T03:06:52.609Z,2.00
2017-05-31T03:07:49.174Z,3.00
2017-05-31T03:08:45.697Z,3.00
2017-05-31T03:09:42.157Z,3.00
2017-05-31T03:10:38.617Z,4.00
2017-05-31T03:11:35.048Z,4.00
2017-05-31T03:12:31.540Z,5.00
2017-05-31T03:13:28.049Z,5.00
2017-05-31T03:14:24.559Z,6.00
2017-05-31T03:15:21.014Z,6.00
2017-05-31T03:16:17.440Z,7.00
2017-05-31T03:17:13.910Z,8.00
2017-05-31T03:18:10.440Z,8.00
2017-05-31T03:19:06.877Z,9.00
2017-05-31T03:20:03.346Z,10.00
2017-05-31T03:20:59.791Z,11.00
2017-05-31T03:21:56.264Z,12.00
2017-05-31T03:22:52.734Z,13.00
2017-05-31T03:23:49.199Z,14.00
2017-05-31T03:24:45.728Z,15.00
2017-05-31T03:25:42.225Z,16.00
2017-05-31T03:26:38.680Z,17.00
2017-05-31T03:27:35.191Z,18.00
2017-05-31T03:28:31.699Z,19.00
2017-05-31T03:29:28.439Z,20.00
2017-05-31T03:30:24.982Z,21.00
2017-05-31T03:31:21.501Z,22.00
2017-05-31T03:32:18.051Z,24.00
2017-05-31T03:33:14.536Z,25.00
2017-05-31T03:34:11.016Z,25.00
2017-05-31T03:35:07.445Z,26.00
2017-05-31T03:36:03.973Z,27.00
2017-05-31T03:37:00.461Z,28.00
2017-05-31T03:37:56.918Z,30.00
2017-05-31T03:38:53.372Z,31.00
2017-05-31T03:39:49.833Z,33.00
2017-05-31T03:40:46.259Z,34.00
2017-05-31T03:41:42.762Z,36.00
2017-05-31T03:42:39.263Z,37.00
2017-05-31T03:43:35.722Z,39.00
2017-05-31T03:44:32.245Z,42.00
2017-05-31T03:45:28.648Z,43.00
2017-05-31T03:46:25.106Z,45.00
2017-05-31T03:47:21.611Z,47.00
2017-05-31T03:48:18.127Z,48.00
2017-05-31T03:49:14.672Z,50.00
2017-05-31T03:50:11.089Z,51.00
2017-05-31T03:51:07.590Z,52.00
2017-05-31T03:52:04.089Z,54.00
2017-05-31T03:53:00.538Z,56.00
2017-05-31T03:53:57.037Z,58.00
2017-05-31T03:54:54.530Z,60.00
2017-05-31T03:55:51.106Z,61.00
2017-05-31T03:56:47.751Z,62.00
2017-05-31T03:57:45.306Z,65.00
2017-05-31T03:58:42.922Z,67.00
2017-05-31T03:59:40.579Z,69.00
2017-05-31T04:00:37.085Z,71.00
2017-05-31T04:01:33.721Z,73.00
2017-05-31T04:02:30.289Z,77.00
2017-05-31T04:03:27.001Z,81.00
2017-05-31T04:04:23.474Z,86.00
2017-05-31T04:05:20.128Z,89.00
2017-05-31T04:06:16.708Z,91.00
2017-05-31T04:07:13.178Z,91.00
2017-05-31T04:08:10.670Z,91.00
2017-05-31T04:09:08.037Z,93.00
2017-05-31T04:10:04.585Z,94.00
2017-05-31T04:11:01.177Z,95.00
2017-05-31T04:11:57.679Z,98.00
2017-05-31T04:12:54.151Z,101.00
2017-05-31T04:13:50.627Z,104.00
2017-05-31T04:14:47.209Z,106.00
2017-05-31T04:15:43.752Z,109.00
2017-05-31T04:16:40.791Z,111.00
2017-05-31T04:17:37.312Z,112.00
2017-05-31T04:18:34.000Z,109.00
2017-05-31T04:19:30.936Z,106.00
2017-05-31T04:20:27.571Z,105.00
2017-05-31T04:21:24.176Z,106.00
2017-05-31T04:22:20.863Z,108.00
2017-05-31T04:23:17.416Z,110.00
2017-05-31T04:24:13.982Z,111.00
2017-05-31T04:25:10.573Z,113.00
2017-05-31T04:26:07.459Z,114.00
2017-05-31T04:27:04.100Z,116.00
2017-05-31T04:28:00.862Z,117.00
2017-05-31T04:28:57.694Z,119.00
2017-05-31T04:29:54.452Z,120.00
2017-05-31T04:30:51.152Z,122.00
2017-05-31T04:31:48.154Z,124.00
2017-05-31T04:32:46.114Z,124.00
2017-05-31T04:33:43.730Z,127.00
2017-05-31T04:34:40.616Z,130.00
2017-05-31T04:35:37.156Z,133.00
2017-05-31T04:36:33.783Z,135.00
2017-05-31T04:37:30.355Z,138.00
2017-05-31T04:38:27.693Z,141.00
2017-05-31T04:39:25.211Z,143.00
2017-05-31T04:40:21.950Z,135.00
2017-05-31T04:41:18.582Z,128.00
2017-05-31T04:42:15.136Z,134.00
2017-05-31T04:43:11.686Z,129.00
2017-05-31T04:44:08.242Z,129.00
2017-05-31T04:45:04.925Z,137.00
2017-05-31T04:46:01.421Z,137.00
2017-05-31T04:46:58.936Z,140.00
2017-05-31T04:47:55.535Z,144.00
2017-05-31T04:48:52.084Z,150.00
2017-05-31T04:49:48.630Z,148.00
2017-05-31T04:50:47.125Z,143.00
2017-05-31T04:51:45.408Z,142.00
2017-05-31T04:52:41.928Z,142.00
2017-05-31T04:53:38.330Z,142.00
2017-05-31T04:54:34.615Z,144.00
2017-05-31T04:55:31.868Z,145.00
2017-05-31T04:56:28.256Z,148.00
2017-05-31T04:57:24.552Z,147.00
2017-05-31T04:58:22.746Z,150.00
2017-05-31T04:59:19.083Z,152.00
2017-05-31T05:00:16.336Z,158.00
2017-05-31T05:01:12.815Z,161.00
2017-05-31T05:02:09.195Z,161.00
2017-05-31T05:03:05.455Z,163.00
2017-05-31T05:04:01.731Z,166.00
2017-05-31T05:04:58.021Z,167.00
2017-05-31T05:05:54.321Z,169.00
2017-05-31T05:06:50.640Z,170.00
2017-05-31T05:07:46.951Z,171.00
2017-05-31T05:08:43.363Z,170.00
2017-05-31T05:09:39.699Z,171.00
2017-05-31T05:10:36.231Z,174.00
2017-05-31T05:11:32.535Z,176.00
2017-05-31T05:12:28.863Z,177.00
2017-05-31T05:13:27.167Z,180.00
2017-05-31T05:14:23.540Z,184.00
2017-05-31T05:15:19.835Z,182.00
2017-05-31T05:16:18.164Z,185.00
2017-05-31T05:17:14.525Z,187.00
2017-05-31T05:18:10.815Z,188.00
2017-05-31T05:19:07.092Z,188.00
2017-05-31T05:20:03.759Z,190.00
2017-05-31T05:21:00.048Z,188.00
2017-05-31T05:21:57.275Z,187.00
2017-05-31T05:22:55.683Z,193.00
2017-05-31T05:23:52.027Z,194.00
2017-05-31T05:24:49.256Z,195.00
2017-05-31T05:25:45.672Z,197.00
2017-05-31T05:26:42.037Z,191.00
2017-05-31T05:27:38.429Z,187.00
2017-05-31T05:28:34.936Z,214.00
2017-05-31T05:29:31.423Z,208.00
2017-05-31T05:30:28.805Z,208.00
2017-05-31T05:31:27.130Z,211.00
2017-05-31T05:32:24.375Z,206.00
2017-05-31T05:33:20.655Z,218.00
2017-05-31T05:34:16.948Z,219.00
2017-05-31T05:35:15.000Z,219.00
2017-05-31T05:36:11.371Z,221.00
2017-05-31T05:37:07.690Z,220.00
2017-05-31T05:38:04.155Z,216.00
2017-05-31T05:39:00.415Z,217.00
2017-05-31T05:39:56.687Z,214.00
2017-05-31T05:40:53.817Z,211.00
2017-05-31T05:41:50.344Z,227.00
2017-05-31T05:42:48.319Z,223.00
2017-05-31T05:43:47.040Z,220.00
2017-05-31T05:44:43.358Z,210.00
2017-05-31T05:45:41.500Z,224.00
2017-05-31T05:46:37.783Z,219.00
2017-05-31T05:47:34.103Z,220.00
2017-05-31T05:48:31.495Z,214.00
2017-05-31T05:49:27.795Z,222.00
2017-05-31T05:50:31.776Z,224.00
2017-05-31T05:51:28.083Z,227.00
2017-05-31T05:52:24.355Z,226.00
2017-05-31T05:53:21.463Z,228.00
2017-05-31T05:54:18.678Z,231.00
2017-05-31T05:55:14.967Z,229.00
2017-05-31T05:56:11.255Z,248.00
2017-05-31T05:57:07.511Z,251.00
2017-05-31T05:58:05.667Z,255.00
2017-05-31T05:59:03.791Z,254.00
2017-05-31T06:00:00.851Z,245.00
2017-05-31T06:00:57.983Z,253.00
2017-05-31T06:01:54.287Z,257.00
2017-05-31T06:02:51.475Z,272.00
2017-05-31T06:03:47.758Z,268.00
2017-05-31T06:04:44.007Z,267.00
2017-05-31T06:05:40.255Z,261.00
2017-05-31T06:06:37.107Z,262.00
2017-05-31T06:07:33.355Z,275.00
2017-05-31T06:08:30.651Z,275.00
2017-05-31T06:09:27.871Z,287.00
2017-05-31T06:10:24.127Z,293.00
2017-05-31T06:11:20.402Z,296.00
2017-05-31T06:12:16.659Z,301.00
2017-05-31T06:13:12.912Z,303.00
2017-05-31T06:14:11.068Z,307.00
2017-05-31T06:15:07.328Z,305.00
2017-05-31T06:16:03.620Z,296.00
2017-05-31T06:17:00.011Z,303.00
2017-05-31T06:17:56.332Z,305.00
2017-05-31T06:18:54.450Z,307.00
2017-05-31T06:19:50.727Z,304.00
2017-05-31T06:20:47.000Z,303.00
2017-05-31T06:21:43.250Z,309.00
2017-05-31T06:22:39.559Z,305.00
2017-05-31T06:23:36.683Z,300.00
2017-05-31T06:24:33.995Z,310.00
2017-05-31T06:25:30.247Z,312.00
2017-05-31T06:26:26.515Z,312.00
2017-05-31T06:27:23.949Z,317.00
2017-05-31T06:28:20.295Z,322.00
2017-05-31T06:29:17.487Z,332.00
2017-05-31T06:30:13.875Z,344.00
2017-05-31T06:31:10.340Z,401.00
2017-05-31T06:32:06.604Z,424.00
2017-05-31T06:33:02.854Z,396.00
2017-05-31T06:33:59.119Z,366.00
2017-05-31T06:34:56.386Z,366.00
2017-05-31T06:35:52.651Z,370.00
2017-05-31T06:36:48.933Z,366.00
2017-05-31T06:37:45.172Z,364.00
2017-05-31T06:38:41.436Z,373.00
2017-05-31T06:39:38.471Z,369.00
2017-05-31T06:40:35.635Z,361.00
2017-05-31T06:41:31.927Z,369.00
2017-05-31T06:42:29.083Z,349.00
2017-05-31T06:43:25.347Z,345.00
2017-05-31T06:44:21.631Z,361.00
2017-05-31T06:45:17.883Z,359.00
2017-05-31T06:46:14.143Z,366.00
2017-05-31T06:47:10.405Z,360.00
2017-05-31T06:48:06.675Z,362.00
2017-05-31T06:49:02.931Z,349.00
2017-05-31T06:49:59.188Z,371.00
2017-05-31T06:50:55.467Z,387.00
2017-05-31T06:51:51.720Z,345.00
2017-05-31T06:52:47.991Z,390.00
2017-05-31T06:53:45.123Z,408.00
2017-05-31T06:54:41.473Z,434.00
2017-05-31T06:55:38.559Z,440.00
2017-05-31T06:56:35.680Z,443.00
2017-05-31T06:57:32.054Z,425.00
2017-05-31T06:58:28.427Z,438.00
2017-05-31T06:59:24.771Z,416.00
2017-05-31T07:00:21.092Z,404.00
2017-05-31T07:01:17.421Z,425.00
2017-05-31T07:02:13.760Z,430.00
2017-05-31T07:03:10.028Z,432.00
2017-05-31T07:04:06.311Z,440.00
2017-05-31T07:05:02.571Z,448.00
2017-05-31T07:05:59.867Z,450.00
2017-05-31T07:06:56.157Z,435.00
2017-05-31T07:07:52.443Z,440.00
2017-05-31T07:08:48.700Z,455.00
2017-05-31T07:09:45.091Z,487.00
2017-05-31T07:10:41.391Z,483.00
2017-05-31T07:11:38.556Z,487.00
2017-05-31T07:12:34.839Z,483.00
2017-05-31T07:13:31.139Z,492.00
2017-05-31T07:14:27.455Z,490.00
2017-05-31T07:15:23.724Z,478.00
2017-05-31T07:16:20.900Z,483.00
2017-05-31T07:17:17.190Z,498.00
2017-05-31T07:18:13.660Z,502.00
2017-05-31T07:19:10.056Z,515.00
2017-05-31T07:20:06.335Z,514.00
2017-05-31T07:21:02.603Z,530.00
2017-05-31T07:21:59.687Z,541.00
2017-05-31T07:22:55.982Z,537.00
2017-05-31T07:23:52.251Z,530.00
2017-05-31T07:24:48.518Z,504.00
2017-05-31T07:25:45.563Z,521.00
2017-05-31T07:26:41.824Z,530.00
2017-05-31T07:27:38.104Z,538.00
2017-05-31T07:28:34.443Z,547.00
2017-05-31T07:29:31.678Z,553.00
2017-05-31T07:30:28.715Z,566.00
2017-05-31T07:31:25.003Z,570.00
2017-05-31T07:32:21.336Z,581.00
2017-05-31T07:33:17.660Z,608.00
2017-05-31T07:34:13.927Z,581.00
2017-05-31T07:35:10.224Z,583.00
2017-05-31T07:36:07.459Z,625.00
2017-05-31T07:37:04.565Z,645.00
2017-05-31T07:38:00.818Z,679.00
2017-05-31T07:38:58.934Z,702.00
2017-05-31T07:39:55.222Z,676.00
2017-05-31T07:40:51.604Z,700.00
2017-05-31T07:41:47.859Z,691.00
2017-05-31T07:42:44.119Z,694.00
2017-05-31T07:43:41.266Z,666.00
2017-05-31T07:44:37.560Z,687.00
2017-05-31T07:45:34.767Z,703.00
2017-05-31T07:46:31.903Z,698.00
2017-05-31T07:47:28.232Z,697.00
2017-05-31T07:48:24.535Z,694.00
2017-05-31T07:49:20.829Z,680.00
2017-05-31T07:50:17.127Z,686.00
2017-05-31T07:51:13.403Z,696.00
2017-05-31T07:52:09.687Z,688.00
2017-05-31T07:53:06.179Z,684.00
2017-05-31T07:54:02.487Z,668.00
2017-05-31T07:54:59.627Z,577.00
2017-05-31T07:55:56.935Z,550.00
2017-05-31T07:56:53.239Z,526.00
2017-05-31T07:57:49.563Z,551.00
2017-05-31T07:58:45.855Z,568.00
2017-05-31T07:59:42.123Z,576.00
2017-05-31T08:00:38.416Z,590.00
2017-05-31T08:01:34.805Z,593.00
2017-05-31T08:02:31.079Z,585.00
2017-05-31T08:03:27.338Z,593.00
2017-05-31T08:04:23.632Z,614.00
2017-05-31T08:05:19.939Z,616.00
2017-05-31T08:06:16.271Z,622.00
2017-05-31T08:07:12.595Z,646.00
2017-05-31T08:08:08.903Z,634.00
2017-05-31T08:09:05.199Z,701.00
2017-05-31T08:10:01.506Z,761.00
2017-05-31T08:10:57.798Z,778.00
2017-05-31T08:11:54.115Z,755.00
2017-05-31T08:12:50.371Z,744.00
2017-05-31T08:13:46.639Z,749.00
2017-05-31T08:14:42.920Z,725.00
2017-05-31T08:15:39.210Z,707.00
2017-05-31T08:16:35.500Z,723.00
2017-05-31T08:17:31.799Z,738.00
2017-05-31T08:18:28.127Z,737.00
2017-05-31T08:19:24.375Z,735.00
2017-05-31T08:20:20.654Z,722.00
2017-05-31T08:21:16.918Z,694.00
2017-05-31T08:22:13.170Z,694.00
2017-05-31T08:23:09.467Z,704.00
2017-05-31T08:24:05.754Z,717.00
2017-05-31T08:25:02.166Z,758.00
2017-05-31T08:25:58.443Z,767.00
2017-05-31T08:26:54.739Z,1263.00
2017-05-31T08:27:51.034Z,721.00
2017-05-31T08:28:47.307Z,706.00
2017-05-31T08:29:43.567Z,687.00
2017-05-31T08:30:39.818Z,668.00
2017-05-31T08:31:36.096Z,646.00
2017-05-31T08:32:32.359Z,629.00
2017-05-31T08:33:28.659Z,616.00
2017-05-31T08:34:24.919Z,592.00
2017-05-31T08:35:21.280Z,621.00
2017-05-31T08:36:17.559Z,634.00
2017-05-31T08:37:13.859Z,629.00
2017-05-31T08:38:10.120Z,637.00
2017-05-31T08:39:06.439Z,697.00
2017-05-31T08:40:02.695Z,754.00
2017-05-31T08:40:58.973Z,781.00
2017-05-31T08:41:55.307Z,837.00
2017-05-31T08:42:51.555Z,875.00
2017-05-31T08:43:47.834Z,921.00
2017-05-31T08:44:44.120Z,933.00
2017-05-31T08:45:40.383Z,996.00
2017-05-31T08:46:36.640Z,1052.00
2017-05-31T08:47:32.931Z,1201.00
2017-05-31T08:48:29.211Z,2455.00
2017-05-31T08:49:25.491Z,2431.00
2017-05-31T08:50:21.779Z,2430.00
2017-05-31T08:51:18.061Z,2416.00
2017-05-31T08:52:14.319Z,2574.00
2017-05-31T08:53:10.628Z,2705.00
2017-05-31T08:54:06.892Z,2514.00
2017-05-31T08:55:03.184Z,2486.00
2017-05-31T08:55:59.447Z,2728.00
2017-05-31T08:56:56.639Z,1657.00
2017-05-31T08:57:52.910Z,1804.00
2017-05-31T08:58:49.175Z,2613.00
2017-05-31T08:59:45.439Z,2394.00
2017-05-31T09:00:41.695Z,2497.00
2017-05-31T09:01:37.963Z,1614.00
2017-05-31T09:02:34.227Z,1754.00
2017-05-31T09:03:30.493Z,1169.00
2017-05-31T09:04:26.771Z,891.00
2017-05-31T09:05:23.031Z,985.00
2017-05-31T09:06:19.311Z,974.00
2017-05-31T09:07:15.567Z,810.00
2017-05-31T09:08:11.823Z,821.00
2017-05-31T09:09:08.107Z,786.00
2017-05-31T09:10:04.383Z,867.00
2017-05-31T09:11:00.671Z,950.00
2017-05-31T09:11:56.940Z,1786.00
2017-05-31T09:12:53.191Z,1893.00
2017-05-31T09:13:49.459Z,947.00
2017-05-31T09:14:46.616Z,1190.00
2017-05-31T09:15:42.879Z,1268.00
2017-05-31T09:16:39.119Z,1136.00
2017-05-31T09:17:35.395Z,2689.00
2017-05-31T09:18:31.674Z,2671.00
2017-05-31T09:19:27.948Z,2767.00
2017-05-31T09:20:24.194Z,2553.00
2017-05-31T09:21:20.461Z,892.00
2017-05-31T09:22:16.727Z,968.00
2017-05-31T09:23:12.972Z,854.00
2017-05-31T09:24:09.228Z,862.00
2017-05-31T09:25:05.503Z,1443.00
2017-05-31T09:26:01.763Z,932.00
2017-05-31T09:26:58.019Z,970.00
2017-05-31T09:27:54.291Z,1016.00
2017-05-31T09:28:50.587Z,2076.00
2017-05-31T09:29:46.844Z,2971.00
2017-05-31T09:30:43.103Z,2900.00
2017-05-31T09:31:39.363Z,3064.00
2017-05-31T09:32:35.610Z,3124.00
2017-05-31T09:33:31.875Z,3153.00
2017-05-31T09:34:28.124Z,3027.00
2017-05-31T09:35:24.372Z,1650.00
2017-05-31T09:36:20.624Z,1665.00
2017-05-31T09:37:16.889Z,2252.00
2017-05-31T09:38:13.163Z,1912.00
2017-05-31T09:39:09.432Z,2959.00
2017-05-31T09:40:05.691Z,3115.00
2017-05-31T09:41:01.943Z,3094.00
2017-05-31T09:41:58.199Z,3132.00
2017-05-31T09:42:54.475Z,3174.00
2017-05-31T09:43:50.719Z,3110.00
2017-05-31T09:44:46.979Z,3143.00
2017-05-31T09:45:43.246Z,2884.00
2017-05-31T09:46:39.520Z,2891.00
2017-05-31T09:47:35.803Z,2785.00
2017-05-31T09:48:32.115Z,2640.00
2017-05-31T09:49:28.379Z,2872.00
2017-05-31T09:50:24.627Z,2650.00
2017-05-31T09:51:20.879Z,2068.00
2017-05-31T09:52:17.171Z,1941.00
2017-05-31T09:53:13.423Z,1131.00
2017-05-31T09:54:09.691Z,3139.00
2017-05-31T09:55:05.951Z,3012.00
2017-05-31T09:56:02.227Z,3202.00
2017-05-31T09:56:58.474Z,2967.00
2017-05-31T09:57:54.732Z,3062.00
2017-05-31T09:58:50.999Z,2852.00
2017-05-31T09:59:47.319Z,3111.00
2017-05-31T10:00:43.579Z,2920.00
2017-05-31T10:01:39.819Z,2674.00
2017-05-31T10:02:36.076Z,2849.00
2017-05-31T10:03:32.357Z,2175.00
2017-05-31T10:04:28.691Z,2654.00
2017-05-31T10:05:24.966Z,841.00
2017-05-31T10:06:21.219Z,804.00
2017-05-31T10:07:17.479Z,850.00
2017-05-31T10:08:13.729Z,940.00
2017-05-31T10:09:09.983Z,978.00
2017-05-31T10:10:06.331Z,1033.00
2017-05-31T10:11:02.599Z,1065.00
2017-05-31T10:11:58.855Z,1321.00
2017-05-31T10:12:55.123Z,2148.00
2017-05-31T10:13:51.391Z,2684.00
2017-05-31T10:14:47.712Z,1474.00
2017-05-31T10:15:43.972Z,1970.00
2017-05-31T10:16:40.251Z,942.00
2017-05-31T10:17:36.511Z,1179.00
2017-05-31T10:18:32.759Z,648.00
2017-05-31T10:19:29.014Z,638.00
2017-05-31T10:20:25.375Z,653.00
2017-05-31T10:21:21.619Z,667.00
2017-05-31T10:22:17.879Z,699.00
2017-05-31T10:23:14.136Z,739.00
2017-05-31T10:24:10.391Z,769.00
2017-05-31T10:25:06.667Z,785.00
2017-05-31T10:26:02.935Z,824.00
2017-05-31T10:26:59.195Z,908.00
2017-05-31T10:27:55.471Z,982.00
2017-05-31T10:28:51.728Z,1085.00
2017-05-31T10:29:47.980Z,1856.00
2017-05-31T10:30:44.268Z,3253.00
2017-05-31T10:31:40.543Z,3312.00
2017-05-31T10:32:36.803Z,3261.00
2017-05-31T10:33:33.055Z,3069.00
2017-05-31T10:34:29.347Z,2121.00
2017-05-31T10:35:25.663Z,2879.00
2017-05-31T10:36:21.948Z,3047.00
2017-05-31T10:37:18.240Z,3256.00
2017-05-31T10:38:14.507Z,3131.00
2017-05-31T10:39:10.763Z,3201.00
2017-05-31T10:40:07.059Z,3105.00
2017-05-31T10:41:03.343Z,3175.00
2017-05-31T10:41:59.618Z,3237.00
2017-05-31T10:42:55.879Z,2915.00
2017-05-31T10:43:52.139Z,2367.00
2017-05-31T10:44:48.391Z,3388.00
2017-05-31T10:45:44.679Z,3247.00
2017-05-31T10:46:40.943Z,3116.00
2017-05-31T10:47:37.207Z,2777.00
2017-05-31T10:48:33.511Z,2805.00
2017-05-31T10:49:29.773Z,3092.00
2017-05-31T10:50:26.039Z,2824.00
2017-05-31T10:51:22.291Z,2570.00
2017-05-31T10:52:18.587Z,2419.00
2017-05-31T10:53:14.850Z,1890.00
2017-05-31T10:54:11.102Z,1260.00
2017-05-31T10:55:07.360Z,1033.00
2017-05-31T10:56:03.668Z,986.00
2017-05-31T10:57:00.019Z,1027.00
2017-05-31T10:57:56.299Z,1045.00
2017-05-31T10:58:52.559Z,977.00
2017-05-31T10:59:48.812Z,1028.00
2017-05-31T11:00:45.067Z,2948.00
2017-05-31T11:01:41.331Z,2365.00
2017-05-31T11:02:37.619Z,3027.00
2017-05-31T11:03:33.891Z,2943.00
2017-05-31T11:04:30.163Z,2819.00
2017-05-31T11:05:26.499Z,3003.00
2017-05-31T11:06:22.752Z,2944.00
2017-05-31T11:07:19.023Z,3008.00
2017-05-31T11:08:15.291Z,3023.00
2017-05-31T11:09:11.546Z,3110.00
2017-05-31T11:10:07.811Z,3207.00
2017-05-31T11:11:04.063Z,3284.00
2017-05-31T11:12:00.323Z,3359.00
2017-05-31T11:12:56.575Z,3290.00
2017-05-31T11:13:52.831Z,3404.00
2017-05-31T11:14:49.085Z,3389.00
2017-05-31T11:15:45.343Z,3356.00
2017-05-31T11:16:41.606Z,2976.00
2017-05-31T11:17:38.016Z,2416.00
2017-05-31T11:18:34.710Z,2640.00
2017-05-31T11:19:30.987Z,2841.00
2017-05-31T11:20:27.390Z,2939.00
2017-05-31T11:21:23.959Z,2973.00
2017-05-31T11:22:20.419Z,3093.00
2017-05-31T11:23:16.837Z,3138.00
2017-05-31T11:24:13.207Z,2844.00
2017-05-31T11:25:09.459Z,3230.00
2017-05-31T11:26:05.726Z,3323.00
2017-05-31T11:27:01.995Z,3390.00
2017-05-31T11:27:58.263Z,3410.00
2017-05-31T11:28:54.746Z,3409.00
2017-05-31T11:29:51.237Z,3377.00
2017-05-31T11:30:47.727Z,3358.00
2017-05-31T11:31:44.140Z,3441.00
2017-05-31T11:32:40.616Z,3496.00
2017-05-31T11:33:37.015Z,3416.00
2017-05-31T11:34:33.292Z,3302.00
2017-05-31T11:35:29.544Z,3377.00
2017-05-31T11:36:26.084Z,3133.00
2017-05-31T11:37:22.547Z,1089.00
2017-05-31T11:38:18.827Z,1044.00
2017-05-31T11:39:15.084Z,1021.00
2017-05-31T11:40:11.375Z,1018.00
2017-05-31T11:41:07.688Z,1023.00
2017-05-31T11:42:04.118Z,1018.00
2017-05-31T11:43:00.623Z,1021.00
2017-05-31T11:43:56.862Z,3129.00
2017-05-31T11:44:53.107Z,3222.00
2017-05-31T11:45:49.500Z,3209.00
2017-05-31T11:46:45.851Z,3214.00
2017-05-31T11:47:42.324Z,3169.00
2017-05-31T11:48:38.812Z,1490.00
2017-05-31T11:49:35.232Z,2932.00
2017-05-31T11:50:31.659Z,2992.00
2017-05-31T11:51:28.058Z,3000.00
2017-05-31T11:52:24.355Z,3047.00
2017-05-31T11:53:20.603Z,3194.00
2017-05-31T11:54:16.860Z,1201.00